createdAt,value
2018-07-12T00:00:57.939Z,16.81
2018-07-12T00:01:58.007Z,16.81
2018-07-12T00:02:58.600Z,16.75
2018-07-12T00:03:58.089Z,16.91
2018-07-12T00:04:57.951Z,16.86
2018-07-12T00:05:58.076Z,16.79
2018-07-12T00:06:58.019Z,16.86
2018-07-12T00:07:57.997Z,16.81
2018-07-12T00:08:57.987Z,16.94
2018-07-12T00:09:58.022Z,16.93
2018-07-12T00:10:57.978Z,16.85
2018-07-12T00:11:58.046Z,16.86
2018-07-12T00:12:58.008Z,16.79
2018-07-12T00:13:58.003Z,16.89
2018-07-12T00:14:58.047Z,16.85
2018-07-12T00:15:58.009Z,16.82
2018-07-12T00:16:57.986Z,16.79
2018-07-12T00:17:58.004Z,16.81
2018-07-12T00:18:58.954Z,16.86
2018-07-12T00:19:58.059Z,16.85
2018-07-12T00:20:58.024Z,16.81
2018-07-12T00:21:58.079Z,16.78
2018-07-12T00:22:58.056Z,16.79
2018-07-12T00:23:58.037Z,16.75
2018-07-12T00:24:58.040Z,16.64
2018-07-12T00:25:58.008Z,16.64
2018-07-12T00:26:58.040Z,16.70
2018-07-12T00:27:58.089Z,16.60
2018-07-12T00:28:58.035Z,16.66
2018-07-12T00:29:58.036Z,16.60
2018-07-12T00:30:58.036Z,16.57
2018-07-12T00:31:58.029Z,16.60
2018-07-12T00:32:58.055Z,16.63
2018-07-12T00:33:58.080Z,16.73
2018-07-12T00:34:58.152Z,16.60
2018-07-12T00:35:58.026Z,16.56
2018-07-12T00:36:58.038Z,16.68
2018-07-12T00:37:58.092Z,16.58
2018-07-12T00:38:58.073Z,16.58
2018-07-12T00:39:58.078Z,16.57
2018-07-12T00:40:58.133Z,16.57
2018-07-12T00:41:58.092Z,16.63
2018-07-12T00:42:58.033Z,16.60
2018-07-12T00:43:58.963Z,16.67
2018-07-12T00:44:58.109Z,16.58
2018-07-12T00:45:58.050Z,16.58
2018-07-12T00:46:58.088Z,16.53
2018-07-12T00:47:58.048Z,16.50
2018-07-12T00:48:58.109Z,16.60
2018-07-12T00:49:58.098Z,16.56
2018-07-12T00:50:58.109Z,16.46
2018-07-12T00:51:58.183Z,16.48
2018-07-12T00:52:58.058Z,16.39
2018-07-12T00:53:58.115Z,16.43
2018-07-12T00:54:58.196Z,16.46
2018-07-12T00:55:58.135Z,16.42
2018-07-12T00:56:58.105Z,16.42
2018-07-12T00:57:58.957Z,16.48
2018-07-12T00:58:58.097Z,16.41
2018-07-12T00:59:58.120Z,16.38
2018-07-12T01:00:58.207Z,16.43
2018-07-12T01:01:58.129Z,16.33
2018-07-12T01:02:58.133Z,16.34
2018-07-12T01:03:58.211Z,16.43
2018-07-12T01:04:58.098Z,16.39
2018-07-12T01:05:58.101Z,16.27
2018-07-12T01:06:58.211Z,16.30
2018-07-12T01:07:58.170Z,16.28
2018-07-12T01:08:58.163Z,16.34
2018-07-12T01:09:58.106Z,16.34
2018-07-12T01:10:58.167Z,16.33
2018-07-12T01:11:58.153Z,16.33
2018-07-12T01:12:58.189Z,16.25
2018-07-12T01:13:58.133Z,16.28
2018-07-12T01:14:58.130Z,16.34
2018-07-12T01:15:58.122Z,16.28
2018-07-12T01:16:58.194Z,16.25
2018-07-12T01:17:58.156Z,16.31
2018-07-12T01:18:58.138Z,16.34
2018-07-12T01:19:58.134Z,16.31
2018-07-12T01:20:58.175Z,16.34
2018-07-12T01:21:58.184Z,16.30
2018-07-12T01:22:58.170Z,16.41
2018-07-12T01:23:58.159Z,16.43
2018-07-12T01:24:58.185Z,16.31
2018-07-12T01:25:58.256Z,16.35
2018-07-12T01:26:58.154Z,16.42
2018-07-12T01:27:58.416Z,16.38
2018-07-12T01:28:58.211Z,16.35
2018-07-12T01:29:58.213Z,16.35
2018-07-12T01:30:58.254Z,16.41
2018-07-12T01:31:58.167Z,16.28
2018-07-12T01:32:58.208Z,16.39
2018-07-12T01:33:58.202Z,16.38
2018-07-12T01:34:58.248Z,16.31
2018-07-12T01:35:58.241Z,16.35
2018-07-12T01:36:58.211Z,16.41
2018-07-12T01:37:58.267Z,16.35
2018-07-12T01:38:58.972Z,16.39
2018-07-12T01:39:58.230Z,16.30
2018-07-12T01:40:58.174Z,16.33
2018-07-12T01:41:58.278Z,16.35
2018-07-12T01:42:58.234Z,16.39
2018-07-12T01:43:58.195Z,16.38
2018-07-12T01:44:58.209Z,16.39
2018-07-12T01:45:58.208Z,16.31
2018-07-12T01:46:58.234Z,16.33
2018-07-12T01:47:58.232Z,16.31
2018-07-12T01:48:58.281Z,16.24
2018-07-12T01:49:58.498Z,16.31
2018-07-12T01:50:58.213Z,16.25
2018-07-12T01:51:58.247Z,16.30
2018-07-12T01:52:58.256Z,16.34
2018-07-12T01:53:58.339Z,16.31
2018-07-12T01:54:58.983Z,16.28
2018-07-12T01:55:58.223Z,16.31
2018-07-12T01:56:58.226Z,16.34
2018-07-12T01:57:58.262Z,16.28
2018-07-12T01:58:58.237Z,16.21
2018-07-12T01:59:58.217Z,16.30
2018-07-12T02:00:58.237Z,16.17
2018-07-12T02:01:58.268Z,16.20
2018-07-12T02:02:58.231Z,16.20
2018-07-12T02:03:58.272Z,16.08
2018-07-12T02:04:58.285Z,16.12
2018-07-12T02:05:58.285Z,16.05
2018-07-12T02:06:58.308Z,16.04
2018-07-12T02:07:58.337Z,16.05
2018-07-12T02:08:58.314Z,16.05
2018-07-12T02:09:58.248Z,16.04
2018-07-12T02:10:58.344Z,16.07
2018-07-12T02:11:58.266Z,16.09
2018-07-12T02:12:58.315Z,16.07
2018-07-12T02:13:58.246Z,16.01
2018-07-12T02:14:58.352Z,15.94
2018-07-12T02:15:59.104Z,16.02
2018-07-12T02:16:59.046Z,16.01
2018-07-12T02:17:59.006Z,16.00
2018-07-12T02:18:58.430Z,16.02
2018-07-12T02:19:58.301Z,16.02
2018-07-12T02:20:58.267Z,16.02
2018-07-12T02:21:58.312Z,16.08
2018-07-12T02:22:58.420Z,16.01
2018-07-12T02:23:58.324Z,16.04
2018-07-12T02:24:58.317Z,16.00
2018-07-12T02:25:58.326Z,16.00
2018-07-12T02:26:58.342Z,15.94
2018-07-12T02:27:58.291Z,15.94
2018-07-12T02:28:58.308Z,15.94
2018-07-12T02:29:58.305Z,15.90
2018-07-12T02:30:58.319Z,15.84
2018-07-12T02:31:58.401Z,15.92
2018-07-12T02:32:58.367Z,15.90
2018-07-12T02:33:58.346Z,15.94
2018-07-12T02:34:58.414Z,15.89
2018-07-12T02:35:58.321Z,15.92
2018-07-12T02:36:58.309Z,15.97
2018-07-12T02:37:58.324Z,15.92
2018-07-12T02:38:58.489Z,15.86
2018-07-12T02:39:58.329Z,15.96
2018-07-12T02:40:58.368Z,15.89
2018-07-12T02:41:58.328Z,15.86
2018-07-12T02:42:58.454Z,15.90
2018-07-12T02:43:58.329Z,15.92
2018-07-12T02:44:58.367Z,15.89
2018-07-12T02:45:58.360Z,15.90
2018-07-12T02:46:58.383Z,15.90
2018-07-12T02:47:58.484Z,15.87
2018-07-12T02:48:58.391Z,15.87
2018-07-12T02:49:58.407Z,15.78
2018-07-12T02:50:58.379Z,15.82
2018-07-12T02:51:58.344Z,15.89
2018-07-12T02:52:58.334Z,15.76
2018-07-12T02:53:58.537Z,15.78
2018-07-12T02:54:58.390Z,15.84
2018-07-12T02:55:58.381Z,15.76
2018-07-12T02:56:58.405Z,15.82
2018-07-12T02:57:58.392Z,15.89
2018-07-12T02:58:58.430Z,15.80
2018-07-12T02:59:58.359Z,15.74
2018-07-12T03:00:58.453Z,15.84
2018-07-12T03:01:58.428Z,15.80
2018-07-12T03:02:58.411Z,15.78
2018-07-12T03:03:58.400Z,15.75
2018-07-12T03:04:58.426Z,15.82
2018-07-12T03:05:58.382Z,15.83
2018-07-12T03:06:58.505Z,15.80
2018-07-12T03:07:58.359Z,15.78
2018-07-12T03:08:59.148Z,15.80
2018-07-12T03:09:58.418Z,15.83
2018-07-12T03:10:58.401Z,15.83
2018-07-12T03:11:58.518Z,15.74
2018-07-12T03:12:58.372Z,15.71
2018-07-12T03:13:58.381Z,15.69
2018-07-12T03:14:58.430Z,15.64
2018-07-12T03:15:58.415Z,15.67
2018-07-12T03:16:58.492Z,15.65
2018-07-12T03:17:58.407Z,15.69
2018-07-12T03:18:58.423Z,15.57
2018-07-12T03:19:58.431Z,15.59
2018-07-12T03:20:58.425Z,15.67
2018-07-12T03:21:58.395Z,15.62
2018-07-12T03:22:58.458Z,15.60
2018-07-12T03:23:58.442Z,15.62
2018-07-12T03:24:59.173Z,15.62
2018-07-12T03:25:58.449Z,15.67
2018-07-12T03:26:58.468Z,15.62
2018-07-12T03:27:58.558Z,15.65
2018-07-12T03:28:58.509Z,15.62
2018-07-12T03:29:58.546Z,15.64
2018-07-12T03:30:58.501Z,15.65
2018-07-12T03:31:58.449Z,15.68
2018-07-12T03:32:58.452Z,15.64
2018-07-12T03:33:58.507Z,15.64
2018-07-12T03:34:58.424Z,15.60
2018-07-12T03:35:58.471Z,15.64
2018-07-12T03:36:59.154Z,15.59
2018-07-12T03:37:58.474Z,15.64
2018-07-12T03:38:58.449Z,15.64
2018-07-12T03:39:58.514Z,15.62
2018-07-12T03:40:58.583Z,15.64
2018-07-12T03:41:58.480Z,15.57
2018-07-12T03:42:58.567Z,15.59
2018-07-12T03:43:58.451Z,15.64
2018-07-12T03:44:58.447Z,15.60
2018-07-12T03:45:58.458Z,15.62
2018-07-12T03:46:58.462Z,15.67
2018-07-12T03:47:58.463Z,15.67
2018-07-12T03:48:58.682Z,15.67
2018-07-12T03:49:58.461Z,15.68
2018-07-12T03:50:58.520Z,15.57
2018-07-12T03:51:58.500Z,15.68
2018-07-12T03:52:58.516Z,15.69
2018-07-12T03:53:58.519Z,15.68
2018-07-12T03:54:58.464Z,15.71
2018-07-12T03:55:58.502Z,15.69
2018-07-12T03:56:58.526Z,15.64
2018-07-12T03:57:58.549Z,15.74
2018-07-12T03:58:58.577Z,15.72
2018-07-12T03:59:58.572Z,15.72
2018-07-12T04:00:58.504Z,15.75
2018-07-12T04:01:58.477Z,15.78
2018-07-12T04:02:58.524Z,15.75
2018-07-12T04:03:58.554Z,15.78
2018-07-12T04:04:58.587Z,15.82
2018-07-12T04:05:58.490Z,15.80
2018-07-12T04:06:58.499Z,15.76
2018-07-12T04:07:58.505Z,15.84
2018-07-12T04:08:58.568Z,15.83
2018-07-12T04:09:58.601Z,15.87
2018-07-12T04:10:58.699Z,15.86
2018-07-12T04:11:58.539Z,15.93
2018-07-12T04:12:58.531Z,15.96
2018-07-12T04:13:58.570Z,15.87
2018-07-12T04:14:58.577Z,16.01
2018-07-12T04:15:58.627Z,15.94
2018-07-12T04:16:58.581Z,15.97
2018-07-12T04:17:58.542Z,16.04
2018-07-12T04:18:58.569Z,16.02
2018-07-12T04:19:58.698Z,16.08
2018-07-12T04:20:58.601Z,16.01
2018-07-12T04:21:58.637Z,16.09
2018-07-12T04:22:58.594Z,16.09
2018-07-12T04:23:58.768Z,16.09
2018-07-12T04:24:58.584Z,16.08
2018-07-12T04:25:58.656Z,16.11
2018-07-12T04:26:58.568Z,16.14
2018-07-12T04:27:58.621Z,16.14
2018-07-12T04:28:58.792Z,16.28
2018-07-12T04:29:58.703Z,16.25
2018-07-12T04:30:58.617Z,16.34
2018-07-12T04:31:58.792Z,16.33
2018-07-12T04:32:58.815Z,16.27
2018-07-12T04:33:58.583Z,16.41
2018-07-12T04:34:58.631Z,16.43
2018-07-12T04:35:58.633Z,16.41
2018-07-12T04:36:58.771Z,16.38
2018-07-12T04:37:58.623Z,16.41
2018-07-12T04:38:58.672Z,16.42
2018-07-12T04:39:59.096Z,16.46
2018-07-12T04:40:58.610Z,16.43
2018-07-12T04:41:58.588Z,16.57
2018-07-12T04:42:58.603Z,16.56
2018-07-12T04:43:58.572Z,16.49
2018-07-12T04:44:58.680Z,16.60
2018-07-12T04:45:58.711Z,16.64
2018-07-12T04:46:59.174Z,16.71
2018-07-12T04:47:58.611Z,16.67
2018-07-12T04:48:58.645Z,16.79
2018-07-12T04:49:58.650Z,16.64
2018-07-12T04:50:59.119Z,16.78
2018-07-12T04:51:58.677Z,16.83
2018-07-12T04:52:58.787Z,16.81
2018-07-12T04:53:58.809Z,16.83
2018-07-12T04:54:58.716Z,16.89
2018-07-12T04:55:58.635Z,16.93
2018-07-12T04:56:59.549Z,16.96
2018-07-12T04:57:59.118Z,16.88
2018-07-12T04:58:58.726Z,16.94
2018-07-12T04:59:58.833Z,16.94
2018-07-12T05:00:58.884Z,16.96
2018-07-12T05:01:58.648Z,17.03
2018-07-12T05:02:58.859Z,17.04
2018-07-12T05:03:58.877Z,17.08
2018-07-12T05:04:58.728Z,17.12
2018-07-12T05:05:59.683Z,17.15
2018-07-12T05:06:58.712Z,17.25
2018-07-12T05:07:58.703Z,17.33
2018-07-12T05:08:58.729Z,17.30
2018-07-12T05:09:58.704Z,17.40
2018-07-12T05:10:58.849Z,17.34
2018-07-12T05:11:58.769Z,17.44
2018-07-12T05:13:00.696Z,17.48
2018-07-12T05:13:58.760Z,17.43
2018-07-12T05:14:58.668Z,17.66
2018-07-12T05:15:58.730Z,17.63
2018-07-12T05:16:58.693Z,17.62
2018-07-12T05:17:58.780Z,17.82
2018-07-12T05:18:58.782Z,18.32
2018-07-12T05:19:58.689Z,19.21
2018-07-12T05:20:58.669Z,20.18
2018-07-12T05:21:58.763Z,21.12
2018-07-12T05:22:59.568Z,21.71
2018-07-12T05:23:58.809Z,22.39
2018-07-12T05:24:58.681Z,22.86
2018-07-12T05:25:58.887Z,23.32
2018-07-12T05:26:58.774Z,23.61
2018-07-12T05:28:00.761Z,23.93
2018-07-12T05:28:58.698Z,24.08
2018-07-12T05:29:58.994Z,24.49
2018-07-12T05:30:58.771Z,24.85
2018-07-12T05:31:58.759Z,25.09
2018-07-12T05:32:58.867Z,25.24
2018-07-12T05:33:59.118Z,25.14
2018-07-12T05:34:59.042Z,24.87
2018-07-12T05:35:58.881Z,24.30
2018-07-12T05:36:58.786Z,23.97
2018-07-12T05:37:58.806Z,23.90
2018-07-12T05:38:58.902Z,24.20
2018-07-12T05:39:59.174Z,24.55
2018-07-12T05:40:58.973Z,24.64
2018-07-12T05:41:58.936Z,25.18
2018-07-12T05:42:58.823Z,25.23
2018-07-12T05:43:58.874Z,25.32
2018-07-12T05:44:58.815Z,25.67
2018-07-12T05:45:58.932Z,25.55
2018-07-12T05:46:58.832Z,25.82
2018-07-12T05:47:58.931Z,25.73
2018-07-12T05:48:58.763Z,25.64
2018-07-12T05:49:58.920Z,25.70
2018-07-12T05:50:59.740Z,25.77
2018-07-12T05:51:58.873Z,25.95
2018-07-12T05:52:58.824Z,26.10
2018-07-12T05:53:58.955Z,26.28
2018-07-12T05:54:58.873Z,26.23
2018-07-12T05:55:59.212Z,26.55
2018-07-12T05:56:59.565Z,26.80
2018-07-12T05:57:58.961Z,26.72
2018-07-12T05:58:59.288Z,26.72
2018-07-12T05:59:59.007Z,26.65
2018-07-12T06:00:59.230Z,26.82
2018-07-12T06:01:59.120Z,27.27
2018-07-12T06:02:59.959Z,27.46
2018-07-12T06:04:01.716Z,27.32
2018-07-12T06:04:59.170Z,27.49
2018-07-12T06:05:59.106Z,27.63
2018-07-12T06:06:59.266Z,27.65
2018-07-12T06:07:59.248Z,27.70
2018-07-12T06:08:59.936Z,26.84
2018-07-12T06:09:58.863Z,26.12
2018-07-12T06:10:59.093Z,26.40
2018-07-12T06:11:59.061Z,26.17
2018-07-12T06:12:59.004Z,26.72
2018-07-12T06:13:59.365Z,26.72
2018-07-12T06:14:59.140Z,26.97
2018-07-12T06:15:59.128Z,27.13
2018-07-12T06:16:59.008Z,27.12
2018-07-12T06:17:58.957Z,26.60
2018-07-12T06:18:59.331Z,26.60
2018-07-12T06:19:59.165Z,26.29
2018-07-12T06:20:59.585Z,25.90
2018-07-12T06:21:58.983Z,25.23
2018-07-12T06:22:59.668Z,25.18
2018-07-12T06:23:59.034Z,25.47
2018-07-12T06:24:58.979Z,25.99
2018-07-12T06:25:59.375Z,26.07
2018-07-12T06:27:01.702Z,26.76
2018-07-12T06:27:59.150Z,27.34
2018-07-12T06:28:59.075Z,27.97
2018-07-12T06:29:59.681Z,27.85
2018-07-12T06:30:59.100Z,27.69
2018-07-12T06:31:59.109Z,28.15
2018-07-12T06:32:59.094Z,27.87
2018-07-12T06:33:59.069Z,28.00
2018-07-12T06:34:59.121Z,28.27
2018-07-12T06:35:59.091Z,28.15
2018-07-12T06:36:59.315Z,28.02
2018-07-12T06:37:59.175Z,28.21
2018-07-12T06:39:00.739Z,28.11
2018-07-12T06:39:59.697Z,27.88
2018-07-12T06:40:59.134Z,27.60
2018-07-12T06:41:59.148Z,27.78
2018-07-12T06:42:59.213Z,28.07
2018-07-12T06:43:59.282Z,28.11
2018-07-12T06:44:59.279Z,27.67
2018-07-12T06:45:59.210Z,27.88
2018-07-12T06:47:00.093Z,28.24
2018-07-12T06:47:59.226Z,28.14
2018-07-12T06:48:59.198Z,28.31
2018-07-12T06:49:59.251Z,28.40
2018-07-12T06:50:59.407Z,28.61
2018-07-12T06:51:59.330Z,28.49
2018-07-12T06:52:59.246Z,28.15
2018-07-12T06:53:59.490Z,27.81
2018-07-12T06:54:59.316Z,27.99
2018-07-12T06:55:59.294Z,28.07
2018-07-12T06:57:59.342Z,28.93
2018-07-12T06:58:59.323Z,29.14
2018-07-12T06:59:59.372Z,29.11
2018-07-12T07:00:59.383Z,29.60
2018-07-12T07:01:59.372Z,29.60
2018-07-12T07:03:02.289Z,28.37
2018-07-12T07:03:59.401Z,28.33
2018-07-12T07:04:59.450Z,29.02
2018-07-12T07:06:00.341Z,29.51
2018-07-12T07:06:59.446Z,29.41
2018-07-12T07:07:59.453Z,29.53
2018-07-12T07:08:59.418Z,29.63
2018-07-12T07:09:59.437Z,29.34
2018-07-12T07:10:59.452Z,29.60
2018-07-12T07:11:59.436Z,28.92
2018-07-12T07:12:59.446Z,28.77
2018-07-12T07:13:59.818Z,28.64
2018-07-12T07:14:59.450Z,28.95
2018-07-12T07:15:59.461Z,28.90
2018-07-12T07:16:59.509Z,28.61
2018-07-12T07:17:59.499Z,28.89
2018-07-12T07:18:59.591Z,29.21
2018-07-12T07:19:59.528Z,29.18
2018-07-12T07:20:59.567Z,29.42
2018-07-12T07:21:59.638Z,29.74
2018-07-12T07:22:59.615Z,29.42
2018-07-12T07:24:00.439Z,28.62
2018-07-12T07:25:02.965Z,28.22
2018-07-12T07:26:00.121Z,27.82
2018-07-12T07:27:02.363Z,28.48
2018-07-12T07:27:59.714Z,29.19
2018-07-12T07:29:00.744Z,29.12
2018-07-12T07:29:59.683Z,29.00
2018-07-12T07:30:59.706Z,28.80
2018-07-12T07:31:59.692Z,29.58
2018-07-12T07:32:59.704Z,29.52
2018-07-12T07:33:59.717Z,27.69
2018-07-12T07:35:00.628Z,27.93
2018-07-12T07:35:59.743Z,28.22
2018-07-12T07:36:59.932Z,28.58
2018-07-12T07:38:03.000Z,28.62
2018-07-12T07:38:59.850Z,29.05
2018-07-12T07:39:59.804Z,29.60
2018-07-12T07:40:59.861Z,29.58
2018-07-12T07:41:59.814Z,29.55
2018-07-12T07:43:00.892Z,29.85
2018-07-12T07:43:59.866Z,29.97
2018-07-12T07:44:59.944Z,30.20
2018-07-12T07:45:59.938Z,30.37
2018-07-12T07:47:00.001Z,30.49
2018-07-12T07:47:59.906Z,29.63
2018-07-12T07:49:01.491Z,28.89
2018-07-12T07:49:59.936Z,29.21
2018-07-12T07:51:00.100Z,29.83
2018-07-12T07:52:04.271Z,29.74
2018-07-12T07:53:00.764Z,30.39
2018-07-12T07:54:00.058Z,31.26
2018-07-12T07:55:00.067Z,31.38
2018-07-12T07:56:00.272Z,30.83
2018-07-12T07:57:00.903Z,31.61
2018-07-12T07:58:00.141Z,32.10
2018-07-12T07:59:03.773Z,32.28
2018-07-12T08:00:01.969Z,32.47
2018-07-12T08:01:01.006Z,32.38
2018-07-12T08:03:00.232Z,30.97
2018-07-12T08:04:00.638Z,30.69
2018-07-12T08:05:00.558Z,30.61
2018-07-12T08:06:01.184Z,30.97
2018-07-12T08:07:00.761Z,31.35
2018-07-12T08:08:02.336Z,30.84
2018-07-12T08:09:01.845Z,30.95
2018-07-12T08:10:03.695Z,31.56
2018-07-12T08:11:00.508Z,31.19
2018-07-12T08:12:01.746Z,31.44
2018-07-12T08:13:00.342Z,32.11
2018-07-12T08:15:03.402Z,32.21
2018-07-12T08:16:00.406Z,32.59
2018-07-12T08:17:00.551Z,32.60
2018-07-12T08:18:00.629Z,32.22
2018-07-12T08:19:00.864Z,32.52
2018-07-12T08:20:00.439Z,32.40
2018-07-12T08:21:00.764Z,32.22
2018-07-12T08:22:03.443Z,32.45
2018-07-12T08:23:00.778Z,32.01
2018-07-12T08:24:00.578Z,32.00
2018-07-12T08:25:00.583Z,31.66
2018-07-12T08:26:02.384Z,31.16
2018-07-12T08:27:01.267Z,31.58
2018-07-12T08:29:01.445Z,32.65
2018-07-12T08:30:01.142Z,33.04
2018-07-12T08:31:04.664Z,33.19
2018-07-12T08:32:00.956Z,32.97
2018-07-12T08:33:02.077Z,33.29
2018-07-12T08:34:03.454Z,33.06
2018-07-12T08:35:02.059Z,33.06
2018-07-12T08:36:00.869Z,33.38
2018-07-12T08:37:02.930Z,33.00
2018-07-12T08:38:02.848Z,32.62
2018-07-12T08:39:00.819Z,32.08
2018-07-12T08:40:01.786Z,32.22
2018-07-12T08:41:01.500Z,31.66
2018-07-12T08:42:01.097Z,31.19
2018-07-12T08:43:01.516Z,30.80
2018-07-12T08:44:00.976Z,29.63
2018-07-12T08:45:01.077Z,29.24
2018-07-12T08:46:01.077Z,30.24
2018-07-12T08:47:02.004Z,30.94
2018-07-12T08:48:01.287Z,31.53
2018-07-12T08:49:02.120Z,32.22
2018-07-12T08:50:02.157Z,32.89
2018-07-12T08:51:04.032Z,32.66
2018-07-12T08:52:01.036Z,32.56
2018-07-12T08:53:01.172Z,32.33
2018-07-12T08:54:01.039Z,32.32
2018-07-12T08:55:12.780Z,31.66
2018-07-12T08:56:01.122Z,31.63
2018-07-12T08:57:01.109Z,32.14
2018-07-12T08:58:02.390Z,32.19
2018-07-12T08:59:03.289Z,32.69
2018-07-12T09:00:01.143Z,33.37
2018-07-12T09:01:01.298Z,33.47
2018-07-12T09:02:01.152Z,33.50
2018-07-12T09:03:01.289Z,33.45
2018-07-12T09:04:01.198Z,33.47
2018-07-12T09:05:01.282Z,33.45
2018-07-12T09:06:01.216Z,33.19
2018-07-12T09:07:01.300Z,32.72
2018-07-12T09:08:01.239Z,32.99
2018-07-12T09:09:01.321Z,32.93
2018-07-12T09:10:01.476Z,32.69
2018-07-12T09:11:01.329Z,32.81
2018-07-12T09:12:01.595Z,32.35
2018-07-12T09:13:08.141Z,33.12
2018-07-12T09:14:01.381Z,33.97
2018-07-12T09:15:01.439Z,34.10
2018-07-12T09:16:01.487Z,34.43
2018-07-12T09:17:01.446Z,33.53
2018-07-12T09:18:01.698Z,34.02
2018-07-12T09:19:01.547Z,34.30
2018-07-12T09:20:01.570Z,34.32
2018-07-12T09:21:01.589Z,34.15
2018-07-12T09:22:01.637Z,33.98
2018-07-12T09:23:01.579Z,33.14
2018-07-12T09:24:01.574Z,32.93
2018-07-12T09:25:01.644Z,33.23
2018-07-12T09:26:02.407Z,33.61
2018-07-12T09:27:04.369Z,33.06
2018-07-12T09:28:01.693Z,31.96
2018-07-12T09:29:01.871Z,32.77
2018-07-12T09:30:01.707Z,33.00
2018-07-12T09:31:01.798Z,32.28
2018-07-12T09:32:02.304Z,31.44
2018-07-12T09:33:01.800Z,32.41
2018-07-12T09:34:01.884Z,32.97
2018-07-12T09:35:01.880Z,32.99
2018-07-12T09:36:01.833Z,33.41
2018-07-12T09:37:02.094Z,33.54
2018-07-12T09:38:02.826Z,32.60
2018-07-12T09:39:01.920Z,33.00
2018-07-12T09:48:08.776Z,31.01
2018-07-12T09:49:09.789Z,30.55
2018-07-12T09:50:08.739Z,30.49
2018-07-12T09:51:09.358Z,30.00
2018-07-12T09:52:08.943Z,29.98
2018-07-12T09:53:08.818Z,30.76
2018-07-12T09:54:08.928Z,30.62
2018-07-12T09:55:08.828Z,30.17
2018-07-12T09:56:09.649Z,29.64
2018-07-12T09:57:09.245Z,29.31
2018-07-12T09:58:08.821Z,28.90
2018-07-12T09:59:09.716Z,28.56
2018-07-12T10:00:08.905Z,28.55
2018-07-12T10:01:08.927Z,28.06
2018-07-12T10:02:08.947Z,27.82
2018-07-12T10:03:08.930Z,28.61
2018-07-12T10:04:09.998Z,29.97
2018-07-12T10:05:08.929Z,30.73
2018-07-12T10:06:08.983Z,31.36
2018-07-12T10:07:08.997Z,31.50
2018-07-12T10:08:09.027Z,30.89
2018-07-12T10:09:09.089Z,30.08
2018-07-12T10:10:09.007Z,29.55
2018-07-12T10:11:09.029Z,30.79
2018-07-12T10:12:09.030Z,31.80
2018-07-12T10:13:09.112Z,32.65
2018-07-12T10:14:09.126Z,33.49
2018-07-12T10:15:09.121Z,32.19
2018-07-12T10:16:09.122Z,31.92
2018-07-12T10:17:09.127Z,31.61
2018-07-12T10:18:09.171Z,30.98
2018-07-12T10:19:09.171Z,30.31
2018-07-12T10:20:09.187Z,30.61
2018-07-12T10:21:09.725Z,29.64
2018-07-12T10:22:09.196Z,29.86
2018-07-12T10:23:09.841Z,30.80
2018-07-12T10:24:09.272Z,31.09
2018-07-12T10:25:09.298Z,30.84
2018-07-12T10:26:09.301Z,30.34
2018-07-12T10:27:09.299Z,29.85
2018-07-12T10:28:09.352Z,29.19
2018-07-12T10:29:09.407Z,29.78
2018-07-12T10:30:09.326Z,30.61
2018-07-12T10:31:09.339Z,30.80
2018-07-12T10:32:09.379Z,31.26
2018-07-12T10:33:09.355Z,31.72
2018-07-12T10:34:09.377Z,31.72
2018-07-12T10:35:09.434Z,32.23
2018-07-12T10:36:09.408Z,32.57
2018-07-12T10:37:09.416Z,32.67
2018-07-12T10:38:09.442Z,33.06
2018-07-12T10:39:09.484Z,32.66
2018-07-12T10:40:09.506Z,33.03
2018-07-12T10:41:09.518Z,32.94
2018-07-12T10:42:34.756Z,33.28
2018-07-12T10:43:09.554Z,33.15
2018-07-12T22:01:07.087Z,19.62
2018-07-12T22:02:05.213Z,19.58
2018-07-12T22:03:03.440Z,19.58
2018-07-12T22:04:02.118Z,19.50
2018-07-12T22:05:01.295Z,19.51
2018-07-12T22:06:03.731Z,19.51
2018-07-12T22:07:04.193Z,19.46
2018-07-12T22:08:05.049Z,19.51
2018-07-12T22:09:05.581Z,19.46
2018-07-12T22:10:00.876Z,19.48
2018-07-12T22:11:01.079Z,19.50
2018-07-12T22:12:00.692Z,19.47
2018-07-12T22:13:01.273Z,19.44
2018-07-12T22:14:01.067Z,19.40
2018-07-12T22:15:00.931Z,19.43
2018-07-12T22:16:01.317Z,19.43
2018-07-12T22:17:00.527Z,19.40
2018-07-12T22:18:01.262Z,19.32
2018-07-12T22:19:02.499Z,19.32
2018-07-12T22:20:00.741Z,19.29
2018-07-12T22:21:01.465Z,19.26
2018-07-12T22:22:00.393Z,19.31
2018-07-12T22:23:01.606Z,19.25
2018-07-12T22:24:02.075Z,19.26
2018-07-12T22:26:01.976Z,19.26
2018-07-12T22:28:00.432Z,19.16
2018-07-12T22:29:00.490Z,19.16
2018-07-12T22:30:00.419Z,19.11
2018-07-12T22:31:00.646Z,19.19
2018-07-12T22:32:01.260Z,19.13
2018-07-12T22:33:00.669Z,19.08
2018-07-12T22:34:00.621Z,19.08
2018-07-12T22:35:00.566Z,19.06
2018-07-12T22:36:01.092Z,19.14
2018-07-12T22:37:00.543Z,18.91
2018-07-12T22:38:00.595Z,19.11
2018-07-12T22:39:00.579Z,19.10
2018-07-12T22:40:01.649Z,19.04
2018-07-12T22:41:01.410Z,19.06
2018-07-12T22:42:00.685Z,19.10
2018-07-12T22:43:00.568Z,19.07
2018-07-12T22:44:02.087Z,18.95
2018-07-12T22:45:00.453Z,18.91
2018-07-12T22:46:01.682Z,18.95
2018-07-12T22:47:00.713Z,18.82
2018-07-12T22:48:03.098Z,18.85
2018-07-12T22:49:00.928Z,18.72
2018-07-12T22:50:00.503Z,18.70
2018-07-12T22:51:00.470Z,18.69
2018-07-12T22:52:00.215Z,18.67
2018-07-12T22:53:00.708Z,18.66
2018-07-12T22:54:00.636Z,18.73
2018-07-12T22:55:04.465Z,18.67
2018-07-12T22:56:00.645Z,18.67
2018-07-12T22:57:01.378Z,18.63
2018-07-12T22:58:01.782Z,18.69
2018-07-12T22:59:00.563Z,18.66
2018-07-12T23:00:01.561Z,18.55
2018-07-12T23:01:00.702Z,18.62
2018-07-12T23:02:00.719Z,18.54
2018-07-12T23:03:00.480Z,18.55
2018-07-12T23:04:00.526Z,18.55
2018-07-12T23:05:00.770Z,18.62
2018-07-12T23:06:00.708Z,18.45
2018-07-12T23:07:00.618Z,18.45
2018-07-12T23:08:01.040Z,18.54
2018-07-12T23:09:00.616Z,18.47
2018-07-12T23:10:01.355Z,18.54
2018-07-12T23:11:00.521Z,18.41
2018-07-12T23:12:00.459Z,18.39
2018-07-12T23:13:00.660Z,18.42
2018-07-12T23:14:00.648Z,18.42
2018-07-12T23:15:01.591Z,18.45
2018-07-12T23:16:00.886Z,18.44
2018-07-12T23:17:00.694Z,18.42
2018-07-12T23:18:00.988Z,18.36
2018-07-12T23:19:01.370Z,18.39
2018-07-12T23:20:00.808Z,18.41
2018-07-12T23:21:00.698Z,18.44
2018-07-12T23:22:01.737Z,18.39
2018-07-12T23:23:00.528Z,18.37
2018-07-12T23:24:00.506Z,18.42
2018-07-12T23:25:01.393Z,18.39
2018-07-12T23:26:00.588Z,18.44
2018-07-12T23:27:00.347Z,18.45
2018-07-12T23:28:01.214Z,18.32
2018-07-12T23:29:00.712Z,18.37
2018-07-12T23:30:01.028Z,18.41
2018-07-12T23:31:00.812Z,18.36
2018-07-12T23:32:01.238Z,18.36
2018-07-12T23:33:01.343Z,18.36
2018-07-12T23:34:00.804Z,18.35
2018-07-12T23:35:00.721Z,18.29
2018-07-12T23:36:00.785Z,18.41
2018-07-12T23:37:00.712Z,18.35
2018-07-12T23:38:00.541Z,18.30
2018-07-12T23:39:01.443Z,18.30
2018-07-12T23:40:01.944Z,18.32
2018-07-12T23:41:00.684Z,18.37
2018-07-12T23:42:00.712Z,18.29
2018-07-12T23:43:01.410Z,18.32
2018-07-12T23:44:01.322Z,18.18
2018-07-12T23:45:00.780Z,18.18
2018-07-12T23:46:00.785Z,18.23
2018-07-12T23:47:01.240Z,18.23
2018-07-12T23:48:00.583Z,18.23
2018-07-12T23:49:00.872Z,18.17
2018-07-12T23:50:00.922Z,18.10
2018-07-12T23:51:00.836Z,18.02
2018-07-12T23:52:01.371Z,18.05
2018-07-12T23:53:02.370Z,18.08
2018-07-12T23:54:01.273Z,18.05
2018-07-12T23:55:00.876Z,18.02
2018-07-12T23:56:01.623Z,17.97
2018-07-12T23:57:01.105Z,18.02
2018-07-12T23:58:00.683Z,18.02
2018-07-12T23:59:02.377Z,17.96
